createdAt,value
2018-11-05T00:01:03.835Z,20.60
2018-11-05T00:03:35.445Z,20.60
2018-11-05T00:06:07.329Z,20.60
2018-11-05T00:08:39.052Z,20.50
2018-11-05T00:11:37.402Z,20.60
2018-11-05T00:14:09.592Z,20.50
2018-11-05T00:16:41.283Z,20.60
2018-11-05T00:19:12.883Z,20.50
2018-11-05T00:21:44.475Z,20.60
2018-11-05T00:24:16.072Z,20.50
2018-11-05T00:26:47.714Z,20.50
2018-11-05T00:29:19.353Z,20.60
2018-11-05T00:31:50.870Z,20.50
2018-11-05T00:34:22.405Z,20.50
2018-11-05T00:36:54.077Z,20.50
2018-11-05T00:39:25.733Z,20.50
2018-11-05T00:41:57.329Z,20.60
2018-11-05T00:44:28.936Z,20.50
2018-11-05T00:47:00.525Z,20.50
2018-11-05T00:49:32.069Z,20.50
2018-11-05T00:52:03.660Z,20.50
2018-11-05T00:54:35.189Z,20.60
2018-11-05T00:57:06.781Z,20.50
2018-11-05T00:59:38.347Z,20.50
2018-11-05T01:02:09.926Z,20.50
2018-11-05T01:04:41.720Z,20.50
2018-11-05T01:07:13.414Z,20.50
2018-11-05T01:09:44.866Z,20.50
2018-11-05T01:12:16.402Z,20.50
2018-11-05T01:14:48.004Z,20.50
2018-11-05T01:17:19.552Z,20.60
2018-11-05T01:19:57.713Z,20.50
2018-11-05T01:22:29.403Z,20.50
2018-11-05T01:25:00.859Z,20.50
2018-11-05T01:27:32.482Z,20.50
2018-11-05T01:30:04.483Z,20.50
2018-11-05T01:32:36.081Z,20.50
2018-11-05T01:35:09.460Z,20.50
2018-11-05T01:37:41.250Z,20.50
2018-11-05T01:40:14.341Z,20.50
2018-11-05T01:42:46.146Z,20.50
2018-11-05T01:45:17.721Z,20.50
2018-11-05T01:47:49.331Z,20.50
2018-11-05T01:50:21.020Z,20.50
2018-11-05T01:52:52.721Z,20.50
2018-11-05T01:55:24.309Z,20.50
2018-11-05T01:57:55.867Z,20.50
2018-11-05T02:00:27.438Z,20.50
2018-11-05T02:02:59.089Z,20.50
2018-11-05T02:05:30.755Z,20.50
2018-11-05T02:08:02.406Z,20.50
2018-11-05T02:10:33.984Z,20.50
2018-11-05T02:13:05.683Z,20.50
2018-11-05T02:15:37.344Z,20.50
2018-11-05T02:18:08.894Z,20.50
2018-11-05T02:20:40.474Z,20.50
2018-11-05T02:23:12.141Z,20.50
2018-11-05T02:25:43.687Z,20.50
2018-11-05T02:28:15.240Z,20.50
2018-11-05T02:30:46.870Z,20.50
2018-11-05T02:33:18.440Z,20.40
2018-11-05T02:35:50.104Z,20.50
2018-11-05T02:38:21.828Z,20.50
2018-11-05T02:40:53.391Z,20.50
2018-11-05T02:43:24.997Z,20.50
2018-11-05T02:46:03.325Z,20.50
2018-11-05T02:48:34.967Z,20.40
2018-11-05T02:51:07.052Z,20.50
2018-11-05T02:53:38.760Z,20.40
2018-11-05T02:56:10.311Z,20.50
2018-11-05T02:58:43.165Z,20.50
2018-11-05T03:01:14.763Z,20.50
2018-11-05T03:03:46.445Z,20.50
2018-11-05T03:06:18.025Z,20.50
2018-11-05T03:08:49.646Z,20.40
2018-11-05T03:11:21.280Z,20.40
2018-11-05T03:13:52.900Z,20.50
2018-11-05T03:16:24.550Z,20.40
2018-11-05T03:18:56.395Z,20.50
2018-11-05T03:21:28.030Z,20.50
2018-11-05T03:23:59.559Z,20.40
2018-11-05T03:26:31.288Z,20.40
2018-11-05T03:29:02.876Z,20.40
2018-11-05T03:31:34.665Z,20.50
2018-11-05T03:34:06.459Z,20.40
2018-11-05T03:36:37.978Z,20.50
2018-11-05T03:39:11.575Z,20.40
2018-11-05T03:41:43.199Z,20.40
2018-11-05T03:44:14.892Z,20.40
2018-11-05T03:46:46.565Z,20.40
2018-11-05T03:49:18.147Z,20.50
2018-11-05T03:51:49.662Z,20.40
2018-11-05T03:54:21.225Z,20.40
2018-11-05T03:56:52.814Z,20.40
2018-11-05T03:59:24.382Z,20.40
2018-11-05T04:01:56.003Z,20.40
2018-11-05T04:04:27.621Z,20.40
2018-11-05T04:06:59.187Z,20.40
2018-11-05T04:09:30.708Z,20.40
2018-11-05T04:12:02.254Z,20.40
2018-11-05T04:14:33.794Z,20.40
2018-11-05T04:17:05.670Z,20.40
2018-11-05T04:19:37.202Z,20.40
2018-11-05T04:22:08.746Z,20.40
2018-11-05T04:24:40.459Z,20.40
2018-11-05T04:27:12.035Z,20.40
2018-11-05T04:29:43.572Z,20.40
2018-11-05T04:32:15.175Z,20.40
2018-11-05T04:34:46.763Z,20.40
2018-11-05T04:37:18.548Z,20.40
2018-11-05T04:39:50.203Z,20.40
2018-11-05T04:42:21.718Z,20.40
2018-11-05T04:44:53.209Z,20.40
2018-11-05T04:47:24.781Z,20.40
2018-11-05T04:49:56.431Z,20.40
2018-11-05T04:52:28.169Z,20.40
2018-11-05T04:54:59.779Z,20.40
2018-11-05T04:57:31.772Z,20.30
2018-11-05T05:00:07.739Z,20.40
2018-11-05T05:02:41.551Z,20.40
2018-11-05T05:05:14.318Z,20.30
2018-11-05T05:07:45.915Z,20.30
2018-11-05T05:10:17.465Z,20.30
2018-11-05T05:12:49.014Z,20.30
2018-11-05T05:15:20.628Z,20.30
2018-11-05T05:17:52.537Z,20.30
2018-11-05T05:20:24.407Z,20.30
2018-11-05T05:22:56.261Z,20.30
2018-11-05T05:25:29.127Z,20.30
2018-11-05T05:28:01.086Z,20.30
2018-11-05T05:30:33.139Z,20.30
2018-11-05T05:33:05.418Z,20.30
2018-11-05T05:35:37.026Z,20.30
2018-11-05T05:38:08.650Z,20.30
2018-11-05T05:40:40.337Z,20.30
2018-11-05T05:43:11.999Z,20.30
2018-11-05T05:45:43.916Z,20.20
2018-11-05T05:48:15.919Z,20.30
2018-11-05T05:50:48.447Z,20.30
2018-11-05T05:53:20.172Z,20.30
2018-11-05T05:55:51.819Z,20.30
2018-11-05T05:58:23.447Z,20.30
2018-11-05T06:00:55.125Z,20.30
2018-11-05T06:03:26.761Z,20.30
2018-11-05T06:05:58.446Z,20.30
2018-11-05T06:08:29.895Z,20.30
2018-11-05T06:11:01.539Z,20.30
2018-11-05T06:13:33.127Z,20.30
2018-11-05T06:16:04.957Z,20.30
2018-11-05T06:18:36.463Z,20.30
2018-11-05T06:21:07.882Z,20.30
2018-11-05T06:23:39.391Z,20.30
2018-11-05T06:26:17.507Z,20.40
2018-11-05T06:28:48.990Z,20.40
2018-11-05T06:31:20.450Z,20.30
2018-11-05T06:33:52.005Z,20.30
2018-11-05T06:36:23.661Z,20.30
2018-11-05T06:38:55.317Z,20.30
2018-11-05T06:41:26.996Z,20.40
2018-11-05T06:43:58.521Z,20.40
2018-11-05T06:46:30.149Z,20.30
2018-11-05T06:49:01.779Z,20.30
2018-11-05T06:51:33.713Z,20.40
2018-11-05T06:54:05.841Z,20.40
2018-11-05T06:56:37.612Z,20.30
2018-11-05T06:59:09.111Z,20.30
2018-11-05T07:01:40.633Z,20.30
2018-11-05T07:04:12.183Z,20.40
2018-11-05T07:06:43.733Z,20.40
2018-11-05T07:09:15.443Z,20.40
2018-11-05T07:11:47.008Z,20.40
2018-11-05T07:14:18.608Z,20.40
2018-11-05T07:16:50.349Z,20.40
2018-11-05T07:19:22.022Z,20.40
2018-11-05T07:21:53.590Z,20.40
2018-11-05T07:24:25.180Z,20.40
2018-11-05T07:26:56.755Z,20.40
2018-11-05T07:29:28.313Z,20.40
2018-11-05T07:31:59.867Z,20.40
2018-11-05T07:34:31.468Z,20.40
2018-11-05T07:37:03.133Z,20.40
2018-11-05T07:39:34.682Z,20.40
2018-11-05T07:42:06.307Z,20.40
2018-11-05T07:44:37.930Z,20.40
2018-11-05T07:47:09.462Z,20.40
2018-11-05T07:49:41.072Z,20.30
2018-11-05T07:52:12.656Z,20.40
2018-11-05T07:54:44.173Z,20.40
2018-11-05T07:57:15.840Z,20.40
2018-11-05T07:59:47.431Z,20.40
2018-11-05T08:02:19.021Z,20.30
2018-11-05T08:04:50.628Z,20.40
2018-11-05T08:07:22.176Z,20.40
2018-11-05T08:09:53.743Z,20.30
2018-11-05T08:12:25.306Z,20.30
2018-11-05T08:14:56.998Z,20.40
2018-11-05T08:17:28.688Z,20.30
2018-11-05T08:20:00.195Z,20.30
2018-11-05T08:22:31.800Z,20.40
2018-11-05T08:25:03.416Z,20.30
2018-11-05T08:27:35.162Z,20.30
2018-11-05T08:30:11.010Z,20.30
2018-11-05T08:32:42.828Z,20.30
2018-11-05T08:35:14.889Z,20.30
2018-11-05T08:37:47.498Z,20.30
2018-11-05T08:40:22.735Z,20.30
2018-11-05T08:42:55.143Z,20.30
2018-11-05T08:45:28.219Z,20.30
2018-11-05T08:47:59.788Z,20.30
2018-11-05T08:50:31.492Z,20.30
2018-11-05T08:53:03.180Z,20.30
2018-11-05T08:55:34.730Z,20.30
2018-11-05T08:58:06.377Z,20.30
2018-11-05T09:00:43.043Z,20.30
2018-11-05T09:03:14.650Z,20.30
2018-11-05T09:05:46.338Z,20.30
2018-11-05T09:08:17.918Z,20.30
2018-11-05T09:10:49.688Z,20.30
2018-11-05T09:13:20.988Z,20.30
2018-11-05T09:15:52.517Z,20.40
2018-11-05T09:18:24.113Z,20.40
2018-11-05T09:20:55.816Z,20.30
2018-11-05T09:23:27.418Z,20.40
2018-11-05T09:25:58.975Z,20.40
2018-11-05T09:28:30.527Z,20.40
2018-11-05T09:31:02.121Z,20.40
2018-11-05T09:33:33.644Z,20.40
2018-11-05T09:36:05.312Z,20.40
2018-11-05T09:38:37.029Z,20.40
2018-11-05T09:41:09.647Z,20.40
2018-11-05T09:43:41.199Z,20.40
2018-11-05T09:46:12.759Z,20.40
2018-11-05T09:48:44.408Z,20.40
2018-11-05T09:51:15.898Z,20.30
2018-11-05T09:53:47.484Z,20.30
2018-11-05T09:56:19.151Z,20.40
2018-11-05T09:58:50.670Z,20.30
2018-11-05T10:01:22.261Z,20.30
2018-11-05T10:03:55.425Z,20.20
2018-11-05T10:06:27.450Z,20.10
2018-11-05T10:08:59.018Z,20.10
2018-11-05T10:11:30.601Z,20.20
2018-11-05T10:14:02.380Z,20.20
2018-11-05T10:16:33.939Z,20.20
2018-11-05T10:19:05.819Z,20.30
2018-11-05T10:21:37.359Z,20.30
2018-11-05T10:24:08.970Z,20.30
2018-11-05T10:26:40.673Z,20.30
2018-11-05T10:29:12.230Z,20.30
2018-11-05T10:31:43.797Z,20.40
2018-11-05T10:34:15.340Z,20.30
2018-11-05T10:36:46.848Z,20.40
2018-11-05T10:39:18.320Z,20.40
2018-11-05T10:41:49.904Z,20.40
2018-11-05T10:44:21.731Z,20.40
2018-11-05T10:46:53.450Z,20.40
2018-11-05T10:49:25.048Z,20.40
2018-11-05T10:51:56.651Z,20.40
2018-11-05T10:54:28.263Z,20.40
2018-11-05T10:56:59.809Z,20.50
2018-11-05T10:59:31.445Z,20.50
2018-11-05T11:02:08.180Z,20.50
2018-11-05T11:04:39.721Z,20.50
2018-11-05T11:07:11.465Z,20.50
2018-11-05T11:09:43.112Z,20.50
2018-11-05T11:12:14.608Z,20.50
2018-11-05T11:14:46.301Z,20.50
2018-11-05T11:17:17.823Z,20.50
2018-11-05T11:19:49.511Z,20.60
2018-11-05T11:22:21.024Z,20.60
2018-11-05T11:24:52.685Z,20.60
2018-11-05T11:27:24.385Z,20.60
2018-11-05T11:29:56.020Z,20.60
2018-11-05T11:32:27.863Z,20.60
2018-11-05T11:35:00.270Z,20.60
2018-11-05T11:37:32.034Z,20.60
2018-11-05T11:40:03.975Z,20.60
2018-11-05T11:42:35.646Z,20.60
2018-11-05T11:45:07.235Z,20.70
2018-11-05T11:47:38.694Z,20.70
2018-11-05T11:50:12.592Z,20.70
2018-11-05T11:52:44.221Z,20.70
2018-11-05T11:55:17.358Z,20.70
2018-11-05T11:57:48.983Z,20.70
2018-11-05T12:00:23.863Z,20.70
2018-11-05T12:02:55.566Z,20.70
2018-11-05T12:05:27.253Z,20.70
2018-11-05T12:07:58.768Z,20.80
2018-11-05T12:10:30.268Z,20.80
2018-11-05T12:13:01.830Z,20.80
2018-11-05T12:15:33.492Z,20.80
2018-11-05T12:18:05.461Z,20.80
2018-11-05T12:20:37.098Z,20.80
2018-11-05T12:23:08.760Z,20.80
2018-11-05T12:25:40.286Z,20.90
2018-11-05T12:28:11.822Z,20.80
2018-11-05T12:30:43.363Z,20.90
2018-11-05T12:33:14.897Z,20.90
2018-11-05T12:35:46.427Z,20.90
2018-11-05T12:38:17.988Z,20.90
2018-11-05T12:40:49.697Z,20.90
2018-11-05T12:43:21.388Z,20.90
2018-11-05T12:45:52.988Z,20.90
2018-11-05T12:48:24.559Z,20.90
2018-11-05T12:50:56.176Z,20.90
2018-11-05T12:53:27.772Z,20.90
2018-11-05T12:55:59.363Z,20.90
2018-11-05T12:58:30.941Z,20.90
2018-11-05T13:01:02.651Z,21.00
2018-11-05T13:03:34.328Z,20.90
2018-11-05T13:06:06.309Z,21.00
2018-11-05T13:08:37.976Z,20.90
2018-11-05T13:11:09.564Z,21.00
2018-11-05T13:13:41.082Z,21.00
2018-11-05T13:16:12.876Z,21.00
2018-11-05T13:18:44.504Z,21.00
2018-11-05T13:21:16.065Z,21.00
2018-11-05T13:23:48.007Z,21.00
2018-11-05T13:26:19.585Z,21.00
2018-11-05T13:28:51.112Z,21.10
2018-11-05T13:31:22.734Z,21.00
2018-11-05T13:33:54.355Z,21.10
2018-11-05T13:36:25.955Z,21.00
2018-11-05T13:38:57.511Z,21.10
2018-11-05T13:41:29.012Z,21.10
2018-11-05T13:44:00.570Z,21.10
2018-11-05T13:46:32.617Z,21.10
2018-11-05T13:49:04.529Z,21.10
2018-11-05T13:51:35.580Z,21.10
2018-11-05T13:54:07.705Z,21.10
2018-11-05T13:56:39.225Z,21.10
2018-11-05T13:59:10.982Z,21.10
2018-11-05T14:01:42.627Z,21.10
2018-11-05T14:04:14.395Z,21.10
2018-11-05T14:06:46.284Z,21.10
2018-11-05T14:09:17.919Z,21.10
2018-11-05T14:11:49.728Z,21.10
2018-11-05T14:14:21.255Z,21.20
2018-11-05T14:16:53.043Z,21.20
2018-11-05T14:19:24.701Z,21.20
2018-11-05T14:21:56.340Z,21.20
2018-11-05T14:24:27.911Z,21.20
2018-11-05T14:26:59.492Z,21.20
2018-11-05T14:29:31.481Z,21.20
2018-11-05T14:32:02.668Z,21.20
2018-11-05T14:34:34.378Z,21.20
2018-11-05T14:37:06.081Z,21.20
2018-11-05T14:39:37.783Z,21.20
2018-11-05T14:42:09.347Z,21.20
2018-11-05T14:44:40.893Z,21.20
2018-11-05T14:47:12.518Z,21.20
2018-11-05T14:49:44.219Z,21.20
2018-11-05T14:52:15.772Z,21.30
2018-11-05T14:54:47.525Z,21.30
2018-11-05T14:57:19.160Z,21.30
2018-11-05T14:59:50.701Z,21.30
2018-11-05T15:02:40.524Z,21.30
2018-11-05T15:05:12.921Z,21.30
2018-11-05T15:07:45.409Z,21.30
2018-11-05T15:10:19.179Z,21.30
2018-11-05T15:12:51.113Z,21.30
2018-11-05T15:15:23.172Z,21.30
2018-11-05T15:17:54.718Z,21.30
2018-11-05T15:20:26.363Z,21.30
2018-11-05T15:22:57.950Z,21.30
2018-11-05T15:25:29.524Z,21.30
2018-11-05T15:28:01.163Z,21.30
2018-11-05T15:30:32.807Z,21.30
2018-11-05T15:33:04.428Z,21.40
2018-11-05T15:35:35.999Z,21.30
2018-11-05T15:38:07.670Z,21.40
2018-11-05T15:40:39.257Z,21.40
2018-11-05T15:43:10.858Z,21.40
2018-11-05T15:45:42.459Z,21.40
2018-11-05T15:48:14.150Z,21.40
2018-11-05T15:50:46.004Z,21.40
2018-11-05T15:53:19.048Z,21.40
2018-11-05T15:55:51.822Z,21.40
2018-11-05T15:58:23.694Z,21.40
2018-11-05T16:00:55.417Z,21.40
2018-11-05T16:03:27.061Z,21.40
2018-11-05T16:05:59.316Z,21.40
2018-11-05T16:08:31.660Z,21.40
2018-11-05T16:11:03.379Z,21.40
2018-11-05T16:13:34.900Z,21.40
2018-11-05T16:16:06.906Z,21.40
2018-11-05T16:18:38.812Z,21.40
2018-11-05T16:21:11.696Z,21.40
2018-11-05T16:23:43.411Z,21.40
2018-11-05T16:26:15.412Z,21.40
2018-11-05T16:28:47.041Z,21.40
2018-11-05T16:31:18.594Z,21.40
2018-11-05T16:33:50.122Z,21.40
2018-11-05T16:36:21.616Z,21.40
2018-11-05T16:38:53.530Z,21.40
2018-11-05T16:41:25.430Z,21.40
2018-11-05T16:43:56.995Z,21.40
2018-11-05T16:46:28.655Z,21.40
2018-11-05T16:49:17.763Z,21.40
2018-11-05T16:51:50.060Z,21.40
2018-11-05T16:54:22.691Z,21.40
2018-11-05T16:56:54.866Z,21.40
2018-11-05T16:59:26.525Z,21.40
2018-11-05T17:01:58.408Z,21.40
2018-11-05T17:04:29.566Z,21.40
2018-11-05T17:07:00.982Z,21.40
2018-11-05T17:09:32.442Z,21.40
2018-11-05T17:12:04.306Z,21.40
2018-11-05T17:14:35.750Z,21.40
2018-11-05T17:17:07.669Z,21.40
2018-11-05T17:19:39.213Z,21.40
2018-11-05T17:22:13.216Z,21.40
2018-11-05T17:24:46.716Z,21.40
2018-11-05T17:27:19.238Z,21.40
2018-11-05T17:29:51.432Z,21.40
2018-11-05T17:32:23.440Z,21.40
2018-11-05T17:34:55.360Z,21.40
2018-11-05T17:37:27.286Z,21.40
2018-11-05T17:39:58.812Z,21.40
2018-11-05T17:42:30.404Z,21.40
2018-11-05T17:45:02.305Z,21.40
2018-11-05T17:47:33.872Z,21.40
2018-11-05T17:50:06.985Z,21.40
2018-11-05T17:52:38.953Z,21.40
2018-11-05T17:55:11.772Z,21.40
2018-11-05T17:57:44.615Z,21.40
2018-11-05T18:00:23.238Z,21.40
2018-11-05T18:02:55.063Z,21.40
2018-11-05T18:05:27.047Z,21.40
2018-11-05T18:07:58.855Z,21.40
2018-11-05T18:10:31.239Z,21.40
2018-11-05T18:13:02.781Z,21.40
2018-11-05T18:15:34.435Z,21.40
2018-11-05T18:18:06.028Z,21.40
2018-11-05T18:20:37.528Z,21.40
2018-11-05T18:23:09.274Z,21.40
2018-11-05T18:25:41.081Z,21.40
2018-11-05T18:28:12.608Z,21.40
2018-11-05T18:30:44.120Z,21.40
2018-11-05T18:33:15.908Z,21.40
2018-11-05T18:35:47.449Z,21.40
2018-11-05T18:38:19.428Z,21.40
2018-11-05T18:40:51.041Z,21.40
2018-11-05T18:43:22.765Z,21.40
2018-11-05T18:45:54.415Z,21.40
2018-11-05T18:48:26.012Z,21.40
2018-11-05T18:50:58.391Z,21.40
2018-11-05T18:53:29.984Z,21.40
2018-11-05T18:56:01.486Z,21.40
2018-11-05T18:58:33.015Z,21.40
2018-11-05T19:01:04.569Z,21.40
2018-11-05T19:03:36.367Z,21.40
2018-11-05T19:06:07.978Z,21.40
2018-11-05T19:08:39.523Z,21.40
2018-11-05T19:11:11.093Z,21.40
2018-11-05T19:13:42.593Z,21.40
2018-11-05T19:16:14.214Z,21.40
2018-11-05T19:18:45.878Z,21.40
2018-11-05T19:21:17.400Z,21.40
2018-11-05T19:23:49.501Z,21.40
2018-11-05T19:26:20.917Z,21.40
2018-11-05T19:28:52.494Z,21.50
2018-11-05T19:31:24.175Z,21.50
2018-11-05T19:33:55.871Z,21.50
2018-11-05T19:36:27.767Z,21.50
2018-11-05T19:38:59.568Z,21.50
2018-11-05T19:41:31.473Z,21.50
2018-11-05T19:44:03.135Z,21.50
2018-11-05T19:46:34.926Z,21.50
2018-11-05T19:49:06.730Z,21.60
2018-11-05T19:51:38.634Z,21.60
2018-11-05T19:54:10.231Z,21.60
2018-11-05T19:56:42.023Z,21.60
2018-11-05T19:59:13.845Z,21.60
2018-11-05T20:01:45.437Z,21.60
2018-11-05T20:04:17.509Z,21.60
2018-11-05T20:06:49.195Z,21.60
2018-11-05T20:09:20.763Z,21.60
2018-11-05T20:11:52.490Z,21.60
2018-11-05T20:14:24.258Z,21.60
2018-11-05T20:16:56.008Z,21.60
2018-11-05T20:19:27.683Z,21.60
2018-11-05T20:21:59.301Z,21.60
2018-11-05T20:24:31.093Z,21.60
2018-11-05T20:27:02.734Z,21.60
2018-11-05T20:29:34.561Z,21.60
2018-11-05T20:32:06.806Z,21.70
2018-11-05T20:34:38.425Z,21.60
2018-11-05T20:37:10.056Z,21.70
2018-11-05T20:39:41.693Z,21.70
2018-11-05T20:42:13.501Z,21.70
2018-11-05T20:44:45.126Z,21.70
2018-11-05T20:47:16.933Z,21.70
2018-11-05T20:49:48.567Z,21.70
2018-11-05T20:52:20.311Z,21.70
2018-11-05T20:54:52.363Z,21.70
2018-11-05T20:57:24.149Z,21.70
2018-11-05T20:59:55.870Z,21.70
2018-11-05T21:02:27.546Z,21.70
2018-11-05T21:04:59.216Z,21.70
2018-11-05T21:07:31.258Z,21.70
2018-11-05T21:10:03.360Z,21.70
2018-11-05T21:12:34.969Z,21.70
2018-11-05T21:15:08.832Z,21.70
2018-11-05T21:17:40.494Z,21.70
2018-11-05T21:20:12.737Z,21.70
2018-11-05T21:22:44.750Z,21.70
2018-11-05T21:25:16.178Z,21.70
2018-11-05T21:27:47.942Z,21.70
2018-11-05T21:30:20.853Z,21.70
2018-11-05T21:32:52.526Z,21.70
2018-11-05T21:35:24.119Z,21.70
2018-11-05T21:37:55.886Z,21.70
2018-11-05T21:40:27.474Z,21.70
2018-11-05T21:42:59.090Z,21.70
2018-11-05T21:45:30.706Z,21.60
2018-11-05T21:48:02.308Z,21.70
2018-11-05T21:50:34.049Z,21.70
2018-11-05T21:53:05.940Z,21.70
2018-11-05T21:55:37.527Z,21.70
2018-11-05T21:58:09.233Z,21.60
2018-11-05T22:00:40.916Z,21.70
2018-11-05T22:03:16.264Z,21.60
2018-11-05T22:05:47.820Z,21.60
2018-11-05T22:08:19.458Z,21.60
2018-11-05T22:10:50.970Z,21.60
2018-11-05T22:13:22.647Z,21.60
2018-11-05T22:15:54.204Z,21.60
2018-11-05T22:18:25.849Z,21.60
2018-11-05T22:20:57.382Z,21.60
2018-11-05T22:23:28.888Z,21.60
2018-11-05T22:26:00.555Z,21.60
2018-11-05T22:28:32.202Z,21.60
2018-11-05T22:31:03.815Z,21.60
2018-11-05T22:33:35.385Z,21.50
2018-11-05T22:36:06.916Z,21.60
2018-11-05T22:38:38.521Z,21.50
2018-11-05T22:41:10.222Z,21.60
2018-11-05T22:43:42.185Z,21.50
2018-11-05T22:46:13.915Z,21.50
2018-11-05T22:48:45.543Z,21.50
2018-11-05T22:51:17.183Z,21.50
2018-11-05T22:53:48.822Z,21.50
2018-11-05T22:56:20.552Z,21.50
2018-11-05T22:58:52.205Z,21.50
2018-11-05T23:01:56.408Z,21.50
2018-11-05T23:04:28.006Z,21.50
2018-11-05T23:06:59.715Z,21.50
2018-11-05T23:09:31.389Z,21.50
2018-11-05T23:12:03.182Z,21.50
2018-11-05T23:14:34.763Z,21.50
2018-11-05T23:17:06.680Z,21.50
2018-11-05T23:19:38.554Z,21.50
2018-11-05T23:22:10.205Z,21.50
2018-11-05T23:24:41.955Z,21.40
2018-11-05T23:27:13.519Z,21.40
2018-11-05T23:29:45.077Z,21.40
2018-11-05T23:32:16.663Z,21.40
2018-11-05T23:34:48.373Z,21.40
2018-11-05T23:37:19.986Z,21.40
2018-11-05T23:39:51.494Z,21.40
2018-11-05T23:42:22.996Z,21.40
2018-11-05T23:44:54.667Z,21.40
2018-11-05T23:47:28.098Z,21.40
2018-11-05T23:49:59.610Z,21.40
2018-11-05T23:52:31.231Z,21.40
2018-11-05T23:55:02.842Z,21.40
2018-11-05T23:57:34.461Z,21.40
